Time;durP1;ratioP1;P1;durP2;ratioP2;P2;SDS_P1;SDS_P2;PMS_P1;PMS_P2;Temp;Humidity;BMP_temperature;BMP_pressure;BME280_temperature;BME280_humidity;BME280_pressure;Samples;Min_cycle;Max_cycle;Signal;HPM_P1;HPM_P2
2023/06/30 00:00:53;;;;;;;4.83;3.40;;;;;;;21.15;58.14;100512.78;4978192;28;20438;-70
2023/06/30 00:03:22;;;;;;;5.70;3.40;;;;;;;21.16;58.13;100506.28;4982335;28;20197;-70
2023/06/30 00:05:50;;;;;;;3.80;3.40;;;;;;;21.16;58.36;100504.34;4976863;28;20238;-72
2023/06/30 00:08:16;;;;;;;3.73;3.43;;;;;;;21.15;58.46;100508.19;4975583;28;20288;-71
2023/06/30 00:10:43;;;;;;;4.50;3.43;;;;;;;21.14;58.47;100504.00;4979249;28;20213;-71
2023/06/30 00:13:09;;;;;;;3.47;3.17;;;;;;;21.13;58.44;100505.16;4984002;28;20260;-71
2023/06/30 00:15:35;;;;;;;3.43;3.13;;;;;;;21.12;58.72;100502.84;4980308;28;20225;-71
2023/06/30 00:18:02;;;;;;;3.73;3.30;;;;;;;21.10;58.97;100505.16;4980987;28;20491;-71
2023/06/30 00:20:28;;;;;;;3.83;3.33;;;;;;;21.07;59.11;100503.28;4984604;28;20204;-72
2023/06/30 00:22:56;;;;;;;3.90;3.60;;;;;;;21.06;59.36;100499.09;4981829;28;20730;-72
2023/06/30 00:25:22;;;;;;;3.83;3.53;;;;;;;21.02;59.37;100501.81;4984384;28;20212;-71
2023/06/30 00:27:48;;;;;;;4.23;3.37;;;;;;;21.01;59.05;100502.94;4982090;28;20231;-72
2023/06/30 00:30:15;;;;;;;4.87;3.33;;;;;;;21.01;59.13;100494.13;4979927;28;20220;-72
2023/06/30 00:32:41;;;;;;;3.90;3.60;;;;;;;20.97;59.21;100486.13;4981363;28;20201;-72
2023/06/30 00:35:08;;;;;;;4.97;3.37;;;;;;;20.98;58.75;100481.50;4981490;28;20219;-71
2023/06/30 00:37:35;;;;;;;3.60;3.30;;;;;;;20.96;58.87;100476.53;4980501;28;20229;-71
2023/06/30 00:40:02;;;;;;;4.00;3.63;;;;;;;20.97;59.05;100482.66;4982490;28;20194;-71
2023/06/30 00:42:29;;;;;;;6.97;3.87;;;;;;;20.96;59.14;100481.16;4982172;28;20201;-72
2023/06/30 00:44:55;;;;;;;5.10;3.77;;;;;;;20.94;59.07;100476.16;4978729;28;20205;-71
2023/06/30 00:47:22;;;;;;;3.97;3.57;;;;;;;20.93;59.28;100466.59;4981185;28;20212;-71
2023/06/30 00:49:52;;;;;;;3.80;3.50;;;;;;;20.92;59.00;100467.75;4982637;28;20220;-72
2023/06/30 00:52:18;;;;;;;4.20;3.80;;;;;;;20.92;58.99;100462.38;4982284;28;20221;-72
2023/06/30 00:54:45;;;;;;;4.30;3.90;;;;;;;20.91;58.96;100468.16;4982417;28;20278;-71
2023/06/30 00:57:17;;;;;;;4.20;3.80;;;;;;;20.90;58.84;100464.69;4980698;28;20595;-71
2023/06/30 00:59:43;;;;;;;4.77;4.00;;;;;;;20.90;59.35;100463.94;4975860;23;20224;-72
2023/06/30 01:02:14;;;;;;;4.10;3.80;;;;;;;20.88;59.45;100466.22;4955951;28;20239;-72
2023/06/30 01:04:55;;;;;;;5.90;3.63;;;;;;;20.86;59.73;100455.88;4950834;28;20220;-72
2023/06/30 01:07:27;;;;;;;3.90;3.60;;;;;;;20.86;59.49;100460.50;4953527;28;20240;-72
2023/06/30 01:10:01;;;;;;;3.80;3.50;;;;;;;20.83;59.64;100459.38;4954548;28;20216;-73
2023/06/30 01:12:29;;;;;;;4.37;3.57;;;;;;;20.81;59.43;100455.56;4935849;28;20219;-72
2023/06/30 01:14:56;;;;;;;6.77;4.13;;;;;;;20.79;59.46;100457.84;4933959;28;20291;-72
2023/06/30 01:17:24;;;;;;;4.37;3.70;;;;;;;20.78;60.40;100446.38;4937538;28;20251;-72
2023/06/30 01:19:53;;;;;;;3.97;3.63;;;;;;;20.76;59.94;100442.56;4953347;28;20311;-72
2023/06/30 01:22:25;;;;;;;4.27;3.83;;;;;;;20.74;59.91;100436.84;4945686;28;20220;-72
2023/06/30 01:24:56;;;;;;;3.87;3.57;;;;;;;20.72;59.85;100439.91;4952609;28;20406;-72
2023/06/30 01:27:23;;;;;;;4.07;3.67;;;;;;;20.71;60.08;100445.66;4943696;28;20293;-72
2023/06/30 01:29:52;;;;;;;5.03;4.00;;;;;;;20.69;60.06;100440.69;4953780;28;20962;-72
2023/06/30 01:32:18;;;;;;;6.43;3.93;;;;;;;20.66;60.27;100444.19;4944451;28;20212;-72
2023/06/30 01:34:45;;;;;;;5.97;3.90;;;;;;;20.66;60.36;100443.41;4951071;28;20215;-72
2023/06/30 01:37:12;;;;;;;4.00;3.50;;;;;;;20.65;60.43;100442.63;4947327;28;21263;-72
2023/06/30 01:39:38;;;;;;;4.10;3.70;;;;;;;20.63;60.58;100436.91;4945897;28;20962;-73
2023/06/30 01:42:07;;;;;;;4.53;3.73;;;;;;;20.63;61.30;100436.13;4956643;28;20212;-72
2023/06/30 01:44:35;;;;;;;4.63;4.17;;;;;;;20.62;61.13;100434.63;4941957;28;20267;-72
2023/06/30 01:47:04;;;;;;;4.60;4.20;;;;;;;20.60;61.34;100436.94;4954373;28;20228;-72
2023/06/30 01:49:33;;;;;;;4.73;4.30;;;;;;;20.58;61.64;100434.66;4949384;28;21522;-71
2023/06/30 01:52:00;;;;;;;4.60;3.80;;;;;;;20.57;62.40;100435.81;4951583;28;21778;-72
2023/06/30 01:54:27;;;;;;;4.43;4.03;;;;;;;20.57;62.57;100440.41;4950045;28;20347;-72
2023/06/30 01:56:53;;;;;;;5.13;3.97;;;;;;;20.55;62.76;100438.13;4952966;28;20240;-71
2023/06/30 01:59:20;;;;;;;4.93;4.50;;;;;;;20.54;62.27;100425.13;4951871;28;20225;-72
2023/06/30 02:01:46;;;;;;;7.00;4.87;;;;;;;20.54;61.98;100430.47;4940958;28;20592;-72
2023/06/30 02:04:16;;;;;;;4.87;4.33;;;;;;;20.52;62.38;100430.09;4952325;28;20215;-72
2023/06/30 02:06:46;;;;;;;5.53;4.50;;;;;;;20.51;62.95;100426.66;4951309;28;21122;-72
2023/06/30 02:09:13;;;;;;;5.73;4.03;;;;;;;20.51;62.80;100423.97;4954451;28;20216;-72
2023/06/30 02:11:39;;;;;;;5.07;4.10;;;;;;;20.52;62.59;100427.41;4950993;28;20367;-72
2023/06/30 02:14:06;;;;;;;6.17;4.30;;;;;;;20.51;62.46;100425.88;4966839;28;20638;-72
2023/06/30 02:16:32;;;;;;;5.33;4.07;;;;;;;20.50;62.61;100417.06;4948066;28;20243;-72
2023/06/30 02:18:59;;;;;;;6.93;4.87;;;;;;;20.49;62.41;100420.16;4949381;28;20821;-72
2023/06/30 02:21:26;;;;;;;7.10;4.63;;;;;;;20.47;62.54;100417.88;4947983;28;20212;-72
2023/06/30 02:23:54;;;;;;;8.70;4.70;;;;;;;20.47;63.64;100431.28;4955930;28;20431;-72
2023/06/30 02:26:20;;;;;;;5.10;4.60;;;;;;;20.45;63.23;100428.25;4946911;28;20267;-72
2023/06/30 02:28:47;;;;;;;8.27;4.43;;;;;;;20.46;63.41;100427.09;4949612;28;20527;-72
2023/06/30 02:31:17;;;;;;;6.87;4.37;;;;;;;20.43;63.20;100419.06;4951891;28;20228;-72
2023/06/30 02:33:43;;;;;;;4.50;4.10;;;;;;;20.41;63.16;100414.09;4953749;28;20219;-72
2023/06/30 02:36:09;;;;;;;8.23;4.40;;;;;;;20.40;63.16;100415.25;4952620;28;20270;-72
2023/06/30 02:38:37;;;;;;;5.70;5.00;;;;;;;20.40;63.64;100425.22;4947837;28;20207;-72
2023/06/30 02:41:04;;;;;;;6.07;4.53;;;;;;;20.37;63.96;100421.41;4956159;28;20219;-71
2023/06/30 02:43:30;;;;;;;5.50;4.67;;;;;;;20.34;63.53;100411.44;4952744;28;20216;-72
2023/06/30 02:45:56;;;;;;;5.10;4.60;;;;;;;20.33;64.34;100414.53;4951969;28;20212;-71
2023/06/30 02:48:27;;;;;;;4.80;4.27;;;;;;;20.30;64.58;100418.00;4949841;28;20239;-72
2023/06/30 02:50:53;;;;;;;4.80;4.40;;;;;;;20.28;64.76;100413.03;4952401;28;21089;-72
2023/06/30 02:53:21;;;;;;;5.17;4.67;;;;;;;20.25;64.92;100413.84;4965596;28;20386;-71
2023/06/30 02:55:49;;;;;;;5.63;5.03;;;;;;;20.23;65.08;100415.38;4951175;28;20224;-72
2023/06/30 02:58:17;;;;;;;5.20;4.80;;;;;;;20.20;64.99;100416.16;4932048;28;20535;-72
2023/06/30 03:00:44;;;;;;;4.70;4.27;;;;;;;20.18;64.66;100419.22;4965363;23;20240;-72
2023/06/30 03:03:11;;;;;;;5.17;4.70;;;;;;;20.17;64.76;100415.03;4961747;28;20220;-71
2023/06/30 03:05:39;;;;;;;5.27;4.13;;;;;;;20.15;64.62;100412.00;4960884;28;20237;-71
2023/06/30 03:08:09;;;;;;;7.20;5.10;;;;;;;20.14;64.74;100405.09;4955141;28;20495;-71
2023/06/30 03:10:36;;;;;;;5.10;4.60;;;;;;;20.13;64.96;100411.59;4948073;28;20210;-71
2023/06/30 03:13:04;;;;;;;4.73;4.33;;;;;;;20.13;65.21;100411.59;4944311;28;20207;-71
2023/06/30 03:15:32;;;;;;;9.60;4.43;;;;;;;20.11;65.08;100405.09;4945719;28;20663;-71
2023/06/30 03:18:02;;;;;;;5.33;4.60;;;;;;;20.10;65.31;100411.63;4944465;28;20230;-71
2023/06/30 03:20:29;;;;;;;4.93;4.53;;;;;;;20.09;65.45;100413.56;4943987;28;20209;-71
2023/06/30 03:22:55;;;;;;;5.07;4.57;;;;;;;20.09;65.65;100404.75;4957033;28;20550;-71
2023/06/30 03:25:26;;;;;;;5.20;4.70;;;;;;;20.08;65.59;100412.00;4946468;28;20246;-71
2023/06/30 03:27:52;;;;;;;5.00;4.60;;;;;;;20.08;66.01;100411.25;4944427;29;20259;-71
2023/06/30 03:30:23;;;;;;;6.50;5.03;;;;;;;20.07;65.60;100417.78;4937202;28;20211;-71
2023/06/30 03:32:57;;;;;;;5.07;4.57;;;;;;;20.07;65.43;100405.13;4946119;28;20191;-71
2023/06/30 03:35:24;;;;;;;5.53;5.00;;;;;;;20.07;65.53;100409.75;4948272;28;20238;-71
2023/06/30 03:37:51;;;;;;;4.90;4.43;;;;;;;20.05;65.39;100402.06;4946693;28;20222;-71
2023/06/30 03:40:18;;;;;;;5.17;4.67;;;;;;;20.07;65.46;100404.38;4946615;28;20206;-71
2023/06/30 03:42:44;;;;;;;7.43;5.40;;;;;;;20.06;65.24;100400.13;4946370;28;20234;-72
2023/06/30 03:45:12;;;;;;;7.20;5.17;;;;;;;20.06;65.50;100400.91;4939934;28;20202;-71
2023/06/30 03:47:40;;;;;;;6.93;5.10;;;;;;;20.06;65.63;100400.13;4943628;28;20285;-71
2023/06/30 03:50:07;;;;;;;6.37;5.30;;;;;;;20.05;65.84;100407.41;4945793;28;20199;-71
2023/06/30 03:52:35;;;;;;;6.23;4.77;;;;;;;20.06;65.72;100413.53;4946765;28;20772;-71
2023/06/30 03:55:02;;;;;;;5.53;5.03;;;;;;;20.05;65.99;100410.09;4946794;28;20215;-71
2023/06/30 03:57:29;;;;;;;5.77;5.27;;;;;;;20.06;66.29;100421.56;4949474;28;20204;-71
2023/06/30 03:59:55;;;;;;;6.07;5.37;;;;;;;20.05;66.46;100415.47;4947468;28;20591;-71
2023/06/30 04:02:22;;;;;;;6.30;5.70;;;;;;;20.03;67.03;100425.81;4944343;28;20298;-71
2023/06/30 04:04:50;;;;;;;6.13;5.07;;;;;;;20.03;67.01;100430.41;4946497;28;20211;-71
2023/06/30 04:07:16;;;;;;;6.60;5.90;;;;;;;20.03;66.81;100425.06;4948093;28;20206;-71
2023/06/30 04:09:45;;;;;;;7.27;5.67;;;;;;;20.04;67.14;100430.03;4948391;28;20590;-71
2023/06/30 04:12:11;;;;;;;7.53;6.07;;;;;;;20.04;66.92;100438.06;4946585;28;20218;-71
2023/06/30 04:14:38;;;;;;;6.60;6.00;;;;;;;20.03;67.13;100433.84;4947766;28;20202;-71
2023/06/30 04:17:05;;;;;;;6.40;5.77;;;;;;;20.02;68.09;100437.69;4948855;28;20689;-71
2023/06/30 04:19:31;;;;;;;7.07;6.40;;;;;;;20.03;68.46;100441.13;4947324;28;20623;-71
2023/06/30 04:21:59;;;;;;;6.80;6.03;;;;;;;20.04;68.77;100442.66;4944229;28;20610;-71
2023/06/30 04:24:26;;;;;;;8.37;7.47;;;;;;;20.01;68.59;100428.13;4945773;28;20694;-71
2023/06/30 04:26:52;;;;;;;9.07;7.10;;;;;;;20.01;68.84;100422.75;4943800;28;20721;-71
2023/06/30 04:29:20;;;;;;;7.17;6.47;;;;;;;20.01;68.85;100427.34;4948304;28;20364;-71
2023/06/30 04:31:47;;;;;;;8.53;7.70;;;;;;;19.99;69.20;100427.75;4942043;28;20306;-71
2023/06/30 04:34:13;;;;;;;8.23;7.40;;;;;;;19.99;69.28;100424.31;4944266;28;20207;-71
2023/06/30 04:36:39;;;;;;;8.63;7.83;;;;;;;19.96;69.21;100431.22;4944226;28;20246;-71
2023/06/30 04:39:07;;;;;;;9.60;7.47;;;;;;;19.95;69.64;100429.69;4944970;28;20231;-71
2023/06/30 04:41:37;;;;;;;8.50;7.70;;;;;;;19.94;69.75;100427.41;4946655;28;20198;-71
2023/06/30 04:44:03;;;;;;;9.43;8.40;;;;;;;19.92;70.23;100435.81;4946838;28;20487;-71
2023/06/30 04:46:30;;;;;;;8.53;7.73;;;;;;;19.92;70.11;100448.47;4939982;28;20686;-71
2023/06/30 04:48:56;;;;;;;11.47;8.20;;;;;;;19.90;69.96;100443.50;4944614;28;20226;-71
2023/06/30 04:51:23;;;;;;;8.07;7.27;;;;;;;19.91;70.23;100442.34;4943859;28;20650;-71
2023/06/30 04:53:49;;;;;;;9.93;8.93;;;;;;;19.90;70.76;100440.81;4944651;28;20214;-71
2023/06/30 04:56:17;;;;;;;9.17;8.27;;;;;;;19.90;70.64;100438.13;4943736;28;20203;-71
2023/06/30 04:58:43;;;;;;;9.93;8.60;;;;;;;19.89;70.65;100433.94;4944272;28;20277;-71
2023/06/30 05:01:10;;;;;;;8.83;7.30;;;;;;;19.91;71.37;100438.88;4950255;28;20600;-71
2023/06/30 05:03:36;;;;;;;9.93;8.50;;;;;;;19.93;71.26;100436.59;4950497;28;20210;-71
2023/06/30 05:06:03;;;;;;;10.40;8.87;;;;;;;19.93;71.50;100434.66;4944058;28;20510;-71
2023/06/30 05:08:29;;;;;;;11.00;9.17;;;;;;;19.95;71.22;100427.00;4945983;28;20236;-71
2023/06/30 05:10:56;;;;;;;10.50;8.90;;;;;;;19.97;71.66;100437.34;4944901;28;20226;-71
2023/06/30 05:13:26;;;;;;;10.20;9.07;;;;;;;20.00;73.45;100448.03;4945540;28;20704;-71
2023/06/30 05:15:55;;;;;;;13.10;9.20;;;;;;;20.06;73.85;100454.50;4947602;28;20214;-71
2023/06/30 05:18:21;;;;;;;11.53;9.77;;;;;;;20.11;72.65;100448.00;4945515;28;20302;-71
2023/06/30 05:20:48;;;;;;;10.93;9.80;;;;;;;20.16;72.95;100440.31;4949711;28;20214;-71
2023/06/30 05:23:17;;;;;;;10.83;9.33;;;;;;;20.19;72.74;100439.50;4939960;28;20331;-71
2023/06/30 05:25:46;;;;;;;12.30;9.80;;;;;;;20.24;71.96;100441.03;4939691;28;20206;-70
2023/06/30 05:28:14;;;;;;;10.77;9.07;;;;;;;20.29;71.87;100437.94;4940038;28;20720;-71
2023/06/30 05:30:42;;;;;;;12.63;9.87;;;;;;;20.31;71.39;100435.63;4940098;28;20285;-71
2023/06/30 05:33:11;;;;;;;11.57;9.60;;;;;;;20.35;71.32;100431.00;4937897;28;20230;-71
2023/06/30 05:35:38;;;;;;;13.50;10.30;;;;;;;20.38;71.02;100424.84;4939137;28;20939;-71
2023/06/30 05:38:05;;;;;;;11.27;9.63;;;;;;;20.42;70.67;100423.66;4939843;28;20845;-70
2023/06/30 05:40:32;;;;;;;12.13;10.30;;;;;;;20.46;70.57;100423.63;4940609;28;21391;-71
2023/06/30 05:42:59;;;;;;;14.17;9.73;;;;;;;20.49;70.29;100428.22;4938509;28;20225;-71
2023/06/30 05:45:25;;;;;;;12.87;10.30;;;;;;;20.52;70.56;100430.88;4939148;28;20569;-71
2023/06/30 05:47:53;;;;;;;15.43;10.83;;;;;;;20.56;70.94;100441.56;4925930;28;20218;-71
2023/06/30 05:50:23;;;;;;;12.17;9.53;;;;;;;20.59;70.93;100435.41;4937539;28;20219;-71
2023/06/30 05:52:51;;;;;;;13.00;10.13;;;;;;;20.62;71.25;100437.28;4936204;28;20222;-71
2023/06/30 05:55:18;;;;;;;13.17;10.40;;;;;;;20.64;70.85;100430.38;4938814;28;20333;-71
2023/06/30 05:57:47;;;;;;;14.10;10.33;;;;;;;20.67;70.79;100434.19;4940716;28;20234;-70
2023/06/30 06:00:14;;;;;;;14.43;10.30;;;;;;;20.69;71.48;100451.41;4939154;28;20220;-70
2023/06/30 06:02:42;;;;;;;12.10;9.90;;;;;;;20.70;72.69;100449.50;4938146;28;20238;-71
2023/06/30 06:05:09;;;;;;;14.47;10.33;;;;;;;20.71;72.90;100449.13;4935046;28;20301;-71
2023/06/30 06:07:36;;;;;;;13.67;11.10;;;;;;;20.72;73.27;100437.22;4927698;28;20944;-70
2023/06/30 06:10:03;;;;;;;14.20;10.97;;;;;;;20.73;72.54;100424.56;4933608;28;20209;-70
2023/06/30 06:12:30;;;;;;;15.10;12.07;;;;;;;20.75;72.09;100420.31;4935397;28;20226;-71
2023/06/30 06:14:56;;;;;;;14.70;11.37;;;;;;;20.77;71.89;100407.28;4938022;28;20210;-71
2023/06/30 06:17:23;;;;;;;18.90;11.37;;;;;;;20.77;71.11;100407.28;4938494;28;20779;-71
2023/06/30 06:19:49;;;;;;;16.83;11.33;;;;;;;20.79;71.14;100404.19;4940474;28;20207;-71
2023/06/30 06:22:20;;;;;;;16.27;11.50;;;;;;;20.81;72.03;100391.88;4934252;28;20660;-71
2023/06/30 06:24:46;;;;;;;19.13;11.87;;;;;;;20.84;71.77;100393.00;4938853;28;20638;-71
2023/06/30 06:27:13;;;;;;;17.23;12.40;;;;;;;20.87;71.48;100393.00;4934361;28;20218;-71
2023/06/30 06:29:39;;;;;;;14.80;12.13;;;;;;;20.90;71.34;100396.84;4935570;28;20226;-70
2023/06/30 06:32:07;;;;;;;15.53;11.80;;;;;;;20.94;71.53;100392.16;4935791;28;20215;-70
2023/06/30 06:34:34;;;;;;;16.07;12.23;;;;;;;21.00;71.28;100399.41;4937251;28;20210;-71
2023/06/30 06:37:01;;;;;;;15.53;11.73;;;;;;;21.05;71.18;100403.59;4937381;28;20207;-70
2023/06/30 06:39:29;;;;;;;15.00;11.50;;;;;;;21.08;71.31;100392.81;4935199;28;20245;-71
2023/06/30 06:41:56;;;;;;;16.27;12.00;;;;;;;21.08;70.99;100395.50;4935411;28;20785;-71
2023/06/30 06:44:24;;;;;;;15.27;11.83;;;;;;;21.11;70.82;100399.31;4926236;28;20278;-71
2023/06/30 06:47:30;;;;;;;15.60;11.77;;;;;;;21.12;70.86;100395.44;4937723;28;20684;-71
2023/06/30 06:49:59;;;;;;;13.10;11.10;;;;;;;21.13;71.00;100397.75;4936289;28;20220;-71
2023/06/30 06:52:28;;;;;;;15.93;11.97;;;;;;;21.14;70.97;100403.84;4935638;28;20220;-71
2023/06/30 06:54:54;;;;;;;14.87;11.93;;;;;;;21.12;70.54;100401.56;4928756;28;20210;-71
2023/06/30 06:57:22;;;;;;;14.00;11.50;;;;;;;21.13;70.58;100399.66;4936967;28;20705;-71
2023/06/30 06:59:49;;;;;;;16.17;12.83;;;;;;;21.14;70.60;100406.53;4936555;28;20222;-71
2023/06/30 07:02:15;;;;;;;16.33;12.30;;;;;;;21.16;70.69;100404.22;4936980;28;20681;-71
2023/06/30 07:04:43;;;;;;;14.83;12.17;;;;;;;21.21;70.83;100409.91;4935315;28;20215;-71
2023/06/30 07:07:11;;;;;;;14.43;12.03;;;;;;;21.25;70.46;100407.97;4935138;28;20298;-70
2023/06/30 07:09:38;;;;;;;13.47;11.87;;;;;;;21.34;71.33;100404.78;4937457;28;20231;-71
2023/06/30 07:12:05;;;;;;;12.80;11.17;;;;;;;21.36;69.95;100405.91;4936576;28;20796;-71
2023/06/30 07:14:31;;;;;;;13.37;11.17;;;;;;;21.45;70.64;100403.50;4934720;28;20380;-71
2023/06/30 07:16:58;;;;;;;13.80;11.57;;;;;;;21.53;71.15;100415.66;4936099;28;20206;-71
2023/06/30 07:19:26;;;;;;;16.50;11.87;;;;;;;21.60;70.44;100412.91;4937284;28;20254;-71
2023/06/30 07:21:54;;;;;;;14.53;11.43;;;;;;;21.69;71.14;100405.13;4938085;28;20609;-71
2023/06/30 07:24:21;;;;;;;16.50;12.23;;;;;;;21.76;70.30;100409.66;4937568;28;20213;-71
2023/06/30 07:26:48;;;;;;;15.83;12.13;;;;;;;21.83;70.19;100415.69;4933845;28;20207;-71
2023/06/30 07:29:14;;;;;;;12.40;10.13;;;;;;;21.90;69.57;100407.56;4936184;28;20246;-71
2023/06/30 07:31:40;;;;;;;14.23;11.07;;;;;;;21.96;69.67;100410.53;4936719;28;20208;-71
2023/06/30 07:34:07;;;;;;;17.33;12.30;;;;;;;22.05;69.47;100408.84;4936600;28;20221;-71
2023/06/30 07:36:34;;;;;;;17.33;12.20;;;;;;;22.09;69.12;100411.53;4936270;28;20211;-71
2023/06/30 07:39:00;;;;;;;13.23;11.13;;;;;;;22.13;69.02;100414.91;4938838;28;20227;-72
2023/06/30 07:41:34;;;;;;;14.20;10.90;;;;;;;22.16;69.28;100414.88;4935366;28;20215;-71
2023/06/30 07:44:01;;;;;;;13.57;10.97;;;;;;;22.19;69.58;100416.00;4936575;28;20318;-71
2023/06/30 07:46:27;;;;;;;15.40;10.93;;;;;;;22.19;68.91;100424.81;4934347;28;20210;-71
2023/06/30 07:48:53;;;;;;;12.53;10.80;;;;;;;22.15;67.40;100424.09;4933251;28;20226;-71
2023/06/30 07:51:20;;;;;;;11.90;10.60;;;;;;;22.16;68.02;100424.84;4933092;28;20206;-71
2023/06/30 07:53:46;;;;;;;12.53;10.47;;;;;;;22.16;68.14;100417.56;4934866;28;20768;-71
2023/06/30 07:56:12;;;;;;;14.20;11.23;;;;;;;22.18;69.15;100425.19;4933124;28;20301;-71
2023/06/30 07:58:40;;;;;;;13.77;11.07;;;;;;;22.18;68.21;100427.88;4935134;28;20226;-71
2023/06/30 08:01:06;;;;;;;13.63;11.00;;;;;;;22.19;67.62;100430.19;4935985;28;20215;-71
2023/06/30 08:03:34;;;;;;;14.33;11.57;;;;;;;22.21;67.59;100421.72;4935167;28;20195;-71
2023/06/30 08:06:00;;;;;;;12.83;10.67;;;;;;;22.24;67.91;100418.97;4935463;28;20214;-71
2023/06/30 08:08:27;;;;;;;15.93;11.97;;;;;;;22.29;67.56;100418.50;4935278;28;20223;-71
2023/06/30 08:10:53;;;;;;;13.50;11.30;;;;;;;22.36;67.68;100426.44;4932976;28;20219;-71
2023/06/30 08:13:19;;;;;;;18.90;11.70;;;;;;;22.43;67.73;100431.75;4936218;28;20242;-71
2023/06/30 08:15:47;;;;;;;13.13;10.80;;;;;;;22.51;68.04;100440.50;4932566;28;20221;-71
2023/06/30 08:18:13;;;;;;;15.07;10.67;;;;;;;22.55;66.61;100433.88;4933057;28;20253;-71
2023/06/30 08:20:40;;;;;;;14.07;10.87;;;;;;;22.60;66.58;100441.50;4936015;28;20211;-71
2023/06/30 08:23:06;;;;;;;14.88;11.43;;;;;;;22.64;65.98;100433.34;4933503;28;20211;-71
2023/06/30 08:25:33;;;;;;;15.70;10.40;;;;;;;22.68;66.23;100434.06;4934536;28;20218;-71
2023/06/30 08:27:59;;;;;;;12.03;10.63;;;;;;;22.70;66.28;100434.41;4935166;28;20219;-71
2023/06/30 08:30:25;;;;;;;14.57;11.57;;;;;;;22.75;65.53;100425.84;4934139;28;20215;-71
2023/06/30 08:32:54;;;;;;;13.70;10.43;;;;;;;22.82;67.03;100431.88;4937531;28;20237;-71
2023/06/30 08:35:20;;;;;;;14.15;10.88;;;;;;;22.93;66.84;100432.44;4937780;28;20214;-71
2023/06/30 08:37:47;;;;;;;15.23;10.90;;;;;;;23.02;65.82;100431.94;4936027;28;20226;-71
2023/06/30 08:40:14;;;;;;;13.90;10.70;;;;;;;23.10;65.11;100436.78;4938540;28;20214;-71
2023/06/30 08:42:44;;;;;;;14.00;10.73;;;;;;;23.20;66.02;100437.78;4937055;28;20206;-71
2023/06/30 08:45:13;;;;;;;12.68;10.45;;;;;;;23.29;65.25;100438.00;4936066;28;20211;-71
2023/06/30 08:47:40;;;;;;;12.05;10.07;;;;;;;23.37;65.14;100452.09;4935602;28;20210;-71
2023/06/30 08:50:09;;;;;;;12.93;10.50;;;;;;;23.41;64.34;100450.84;4932887;28;20214;-71
2023/06/30 08:52:36;;;;;;;16.33;11.27;;;;;;;23.48;65.71;100451.47;4934802;28;20483;-71
2023/06/30 08:55:03;;;;;;;13.48;10.85;;;;;;;23.52;65.77;100445.25;4934434;28;20209;-71
2023/06/30 08:57:30;;;;;;;12.70;10.00;;;;;;;23.57;64.13;100452.88;4932951;28;20792;-71
2023/06/30 08:59:56;;;;;;;15.05;11.45;;;;;;;23.60;64.33;100450.84;4934822;28;20237;-71
2023/06/30 09:02:23;;;;;;;14.50;10.25;;;;;;;23.63;64.93;100459.28;4932496;28;20228;-71
2023/06/30 09:04:50;;;;;;;14.27;11.52;;;;;;;23.60;65.29;100461.63;4930067;28;20211;-71
2023/06/30 09:07:26;;;;;;;15.20;11.65;;;;;;;23.59;65.42;100456.66;4934277;28;20646;-71
2023/06/30 09:09:55;;;;;;;12.35;10.70;;;;;;;23.63;65.33;100458.09;4935135;28;20214;-71
2023/06/30 09:12:21;;;;;;;14.35;11.80;;;;;;;23.63;66.07;100460.03;4932825;28;20215;-71
2023/06/30 09:14:50;;;;;;;13.35;11.00;;;;;;;23.63;65.12;100453.88;4932885;28;20222;-71
2023/06/30 09:17:17;;;;;;;13.73;10.43;;;;;;;23.63;64.77;100454.63;4934218;28;20203;-71
2023/06/30 09:19:45;;;;;;;13.25;10.98;;;;;;;23.65;65.21;100452.28;4933149;28;20254;-71
2023/06/30 09:22:12;;;;;;;13.07;10.60;;;;;;;23.67;64.65;100453.41;4932067;28;20586;-71
2023/06/30 09:24:39;;;;;;;11.60;9.02;;;;;;;23.70;63.66;100459.91;4934469;28;20737;-71
2023/06/30 09:27:06;;;;;;;12.18;9.68;;;;;;;23.70;64.25;100457.94;4935095;28;20211;-71
2023/06/30 09:29:34;;;;;;;12.07;10.05;;;;;;;23.73;64.04;100461.00;4934647;28;20233;-71
2023/06/30 09:32:01;;;;;;;15.07;10.75;;;;;;;23.74;63.94;100455.19;4936625;28;20217;-71
2023/06/30 09:34:28;;;;;;;13.23;10.10;;;;;;;23.75;64.31;100452.06;4936006;28;20227;-71
2023/06/30 09:36:55;;;;;;;13.02;10.68;;;;;;;23.74;63.56;100447.84;4935041;28;20203;-71
2023/06/30 09:39:23;;;;;;;15.27;9.95;;;;;;;23.78;65.24;100445.84;4935701;28;20226;-71
2023/06/30 09:41:52;;;;;;;14.70;10.95;;;;;;;23.83;63.32;100444.59;4936449;28;20686;-71
2023/06/30 09:44:20;;;;;;;13.40;11.07;;;;;;;23.92;63.29;100441.34;4934113;28;20701;-71
2023/06/30 09:46:47;;;;;;;13.40;10.20;;;;;;;23.99;62.96;100443.91;4933334;28;20265;-71
2023/06/30 09:49:23;;;;;;;13.52;10.25;;;;;;;24.07;63.54;100442.56;4931941;28;20222;-71
2023/06/30 09:51:50;;;;;;;15.95;10.98;;;;;;;24.12;63.15;100450.94;4931370;28;21166;-71
2023/06/30 09:54:17;;;;;;;14.02;10.50;;;;;;;24.18;63.58;100438.44;4933515;28;20225;-71
2023/06/30 09:56:45;;;;;;;12.32;9.68;;;;;;;;;;4931563;28;20289;-71
2023/06/30 09:59:13;;;;;;;13.27;10.10;;;;;;;24.24;63.58;100450.25;4931234;28;20226;-71
2023/06/30 10:01:40;;;;;;;17.55;9.45;;;;;;;24.29;62.40;100440.91;4928577;28;20199;-71
2023/06/30 10:04:07;;;;;;;15.23;10.23;;;;;;;24.30;60.37;100445.13;4931192;28;20776;-71
2023/06/30 10:06:34;;;;;;;14.95;9.32;;;;;;;24.36;61.49;100435.34;4929930;28;20241;-71
2023/06/30 10:09:03;;;;;;;12.90;9.43;;;;;;;24.42;60.55;100426.34;4929826;28;20218;-71
2023/06/30 10:11:30;;;;;;;13.60;8.88;;;;;;;24.52;58.95;100424.53;4927778;28;20217;-71
2023/06/30 10:14:00;;;;;;;10.40;8.45;;;;;;;24.63;59.88;100433.16;4928957;28;20222;-71
2023/06/30 10:16:29;;;;;;;12.05;8.68;;;;;;;24.75;60.13;100435.19;4929406;28;20526;-71
2023/06/30 10:18:59;;;;;;;11.40;8.43;;;;;;;24.86;58.46;100424.88;4927495;28;20230;-71
2023/06/30 10:21:25;;;;;;;11.85;8.77;;;;;;;24.98;58.95;100434.97;4929477;28;20210;-71
2023/06/30 10:23:53;;;;;;;11.75;8.02;;;;;;;25.07;59.39;100435.88;4927825;28;20329;-71
2023/06/30 10:26:20;;;;;;;14.35;9.43;;;;;;;25.19;58.21;100429.78;4927729;28;20202;-71
2023/06/30 10:28:48;;;;;;;12.27;8.43;;;;;;;25.27;58.18;100431.13;4927683;28;20227;-71
2023/06/30 10:31:14;;;;;;;15.98;9.35;;;;;;;25.40;57.56;100439.28;4928280;28;20226;-71
2023/06/30 10:33:42;;;;;;;12.25;8.50;;;;;;;25.52;58.61;100439.31;4928276;28;20223;-71
2023/06/30 10:36:09;;;;;;;13.90;9.70;;;;;;;25.62;55.98;100435.53;4927607;28;20202;-71
2023/06/30 10:38:37;;;;;;;11.40;8.43;;;;;;;25.69;56.99;100440.72;4927650;28;20222;-71
2023/06/30 10:41:14;;;;;;;12.85;9.10;;;;;;;25.80;56.15;100437.75;4926680;28;20211;-71
2023/06/30 10:44:08;;;;;;;12.68;9.15;;;;;;;25.94;56.74;100437.31;4928975;28;20691;-71
2023/06/30 10:46:44;;;;;;;11.70;8.82;;;;;;;26.04;58.11;100430.84;4928627;28;20221;-71
2023/06/30 10:49:18;;;;;;;11.30;8.75;;;;;;;26.10;55.21;100419.03;4928276;28;20729;-71
2023/06/30 10:51:46;;;;;;;12.98;9.07;;;;;;;26.22;54.58;100423.69;4927365;28;20211;-71
2023/06/30 10:54:20;;;;;;;13.68;8.85;;;;;;;26.33;54.18;100417.94;4925047;28;20231;-71
2023/06/30 10:56:47;;;;;;;11.45;8.70;;;;;;;26.42;54.78;100415.34;4923229;28;20198;-71
2023/06/30 10:59:18;;;;;;;12.88;8.75;;;;;;;26.46;53.45;100416.00;4926904;28;20324;-71
2023/06/30 11:02:15;;;;;;;11.18;8.77;;;;;;;26.58;53.88;100415.97;4927520;28;20213;-71
2023/06/30 11:04:44;;;;;;;11.18;8.55;;;;;;;26.63;55.10;100410.00;4925884;28;20199;-71
2023/06/30 11:07:16;;;;;;;12.52;9.05;;;;;;;26.69;55.85;100408.25;4925009;28;20210;-71
2023/06/30 11:09:57;;;;;;;12.05;9.30;;;;;;;26.73;53.20;100403.47;4927493;28;20239;-71
2023/06/30 11:12:25;;;;;;;13.10;9.32;;;;;;;26.79;53.17;100401.72;4925270;28;20285;-71
2023/06/30 11:14:53;;;;;;;10.88;8.40;;;;;;;26.85;51.95;100391.06;4923195;28;20265;-71
2023/06/30 11:17:20;;;;;;;10.32;8.63;;;;;;;26.91;50.58;100395.50;4925702;28;20773;-71
2023/06/30 11:19:59;;;;;;;13.30;9.45;;;;;;;26.95;49.92;100382.59;4925189;28;20226;-71
2023/06/30 11:22:29;;;;;;;12.82;8.45;;;;;;;27.01;49.77;100394.38;4923758;28;20434;-71